WetterOnline ( https://www.wetteronline.de )

Wetter aktuell Vallauris

Aktuelles Wetter: Nizza (27m)

6-stündlich | Neueste Meldungen
Ortszeit Temperatur Wetter
Fr, 28.02. 13:00 14.3° C fast wolkenlos
Fr, 28.02. 7:00 12.6° C fast wolkenlos
Fr, 28.02. 1:00 15.5° C wolkenlos
Do, 27.02. 19:00 10.7° C fast wolkenlos
Do, 27.02. 13:00 13.6° C wolkig
Do, 27.02. 7:00 5.6° C leicht bewölkt
Do, 27.02. 1:00 7.4° C wolkenlos
Mi, 26.02. 19:00 10.3° C fast wolkenlos
Ortszeit Temperatur Wetter
Fr, 28.02. 14:30 14° C leicht bewölkt
Fr, 28.02. 14:00 14.3° C fast wolkenlos
Fr, 28.02. 13:30 14° C leicht bewölkt
Fr, 28.02. 13:00 14.3° C fast wolkenlos
Fr, 28.02. 12:30 14° C leicht bewölkt
Fr, 28.02. 12:00 14.2° C fast wolkenlos
Fr, 28.02. 11:30 14° C leicht bewölkt
Fr, 28.02. 11:00 14.7° C fast wolkenlos
Ortszeit Relative Feuchte Sichtweite
Fr, 28.02. 13:00 47% 40 km
Fr, 28.02. 7:00 66% 40 km
Fr, 28.02. 1:00 23% 40 km
Do, 27.02. 19:00 78% 40 km
Do, 27.02. 13:00 47% 50 km
Do, 27.02. 7:00 35% 40 km
Do, 27.02. 1:00 33% 40 km
Mi, 26.02. 19:00 36% 40 km
Ortszeit Relative Feuchte Sichtweite
Fr, 28.02. 14:30 51% >10 km
Fr, 28.02. 14:00 50% 40 km
Fr, 28.02. 13:30 47% >10 km
Fr, 28.02. 13:00 47% 40 km
Fr, 28.02. 12:30 51% >10 km
Fr, 28.02. 12:00 49% 40 km
Fr, 28.02. 11:30 51% >10 km
Fr, 28.02. 11:00 56% 40 km
Ortszeit Niederschlagsmenge Niederschlagsart
Fr, 28.02. 13:00 0.0 l/m2 in 6 Std. -
Fr, 28.02. 7:00 0.0 l/m2 in 12 Std. -
Fr, 28.02. 1:00 0.0 l/m2 in 6 Std. -
Do, 27.02. 19:00 0.1 l/m2 in 12 Std. Regen
Do, 27.02. 13:00 0.0 l/m2 in 6 Std. -
Do, 27.02. 7:00 0.0 l/m2 in 12 Std. -
Do, 27.02. 1:00 0.0 l/m2 in 6 Std. -
Mi, 26.02. 19:00 0.0 l/m2 in 12 Std. -
Ortszeit Niederschlagsmenge Niederschlagsart
Fr, 28.02. 14:30 keine Meldung -
Fr, 28.02. 14:00 0.0 l/m2 in 1 Std. -
Fr, 28.02. 13:30 keine Meldung -
Fr, 28.02. 13:00 keine Meldung -
Fr, 28.02. 12:30 keine Meldung -
Fr, 28.02. 12:00 0.0 l/m2 in 1 Std. -
Fr, 28.02. 11:30 keine Meldung -
Fr, 28.02. 11:00 0.0 l/m2 in 1 Std. -
Ortszeit Stärke Spitze Richtung
km/h Bft. km/h Grad Sektor
Fr, 28.02. 13:00 19 3 30 180° S
Fr, 28.02. 7:00 22 4 35 50° NO
Fr, 28.02. 1:00 6 1 15 250° W
Do, 27.02. 19:00 26 4 39 240° SW
Do, 27.02. 13:00 43 6 59 250° W
Do, 27.02. 7:00 11 2 30 330° NW
Do, 27.02. 1:00 13 3 22 350° N
Mi, 26.02. 19:00 28 4 56 280° W
Ortszeit Stärke Spitze Richtung
km/h Bft. km/h Grad Sektor
Fr, 28.02. 14:30 19 3 - 180° S
Fr, 28.02. 14:00 19 3 22 180° S
Fr, 28.02. 13:30 17 3 - 180° S
Fr, 28.02. 13:00 19 3 30 180° S
Fr, 28.02. 12:30 20 4 - 180° S
Fr, 28.02. 12:00 26 4 31 170° S
Fr, 28.02. 11:30 24 4 - 170° S
Fr, 28.02. 11:00 19 3 30 220° SW
Ortszeit Untergrenze Bedeckung Gattung
total tief tief mittel hoch
Fr, 28.02. 13:00 1200 m 1/8 1/8 Sc - Ci
Fr, 28.02. 7:00 480 m 1/8 1/8 Sc - -
Fr, 28.02. 1:00 - 0/8 0/8 - - -
Do, 27.02. 19:00 1290 m 2/8 1/8 Sc - Ci
Do, 27.02. 13:00 1500 m 6/8 3/8 Sc Ac Ci
Do, 27.02. 7:00 8100 m 4/8 0/8 - - Ci
Do, 27.02. 1:00 - 0/8 0/8 - - -
Mi, 26.02. 19:00 690 m 1/8 1/8 Cu - -
Ortszeit Bedeckungsgrad in Achtel und Wolkenuntergrenze
Fr, 28.02. 14:30 1-2(1200m)
Fr, 28.02. 14:00 1(1200m)
Fr, 28.02. 13:30 1-2(1200m)
Fr, 28.02. 13:00 1(1200m)
Fr, 28.02. 12:30 1-2(1200m)
Fr, 28.02. 12:00 1(1200m)
Fr, 28.02. 11:30 1-2(600m)
Fr, 28.02. 11:00 1(600m)
Ortszeit Luftdruck NN (hPa) Tendenz (hPa in 3 Std.)
Fr, 28.02. 13:00 1018 + 1,1
Fr, 28.02. 7:00 1014 + 5,4
Fr, 28.02. 1:00 1006 + 0,8
Do, 27.02. 19:00 1006 - 3,1
Do, 27.02. 13:00 1011 - 2,2
Do, 27.02. 7:00 1012 + 0,2
Do, 27.02. 1:00 1012 0,0
Mi, 26.02. 19:00 1009 + 4,3
Ortszeit Luftdruck NN (hPa) Tendenz (hPa in 3 Std.)
Fr, 28.02. 14:30 1018 keine Meldung
Fr, 28.02. 14:00 1018 + 0,4
Fr, 28.02. 13:30 1018 keine Meldung
Fr, 28.02. 13:00 1018 + 1,1
Fr, 28.02. 12:30 1018 keine Meldung
Fr, 28.02. 12:00 1019 + 2,2
Fr, 28.02. 11:30 1018 keine Meldung
Fr, 28.02. 11:00 1018 + 2,8
Ortszeit Schneehöhe (cm)
Fr, 28.02. 13:00 -
Fr, 28.02. 7:00 -
Fr, 28.02. 1:00 -
Do, 27.02. 19:00 -
Do, 27.02. 13:00 -
Do, 27.02. 7:00 -
Do, 27.02. 1:00 -
Mi, 26.02. 19:00 -
Ortszeit Schneehöhe (cm)
Fr, 28.02. 14:30 -
Fr, 28.02. 14:00 -
Fr, 28.02. 13:30 -
Fr, 28.02. 13:00 -
Fr, 28.02. 12:30 -
Fr, 28.02. 12:00 -
Fr, 28.02. 11:30 -
Fr, 28.02. 11:00 -
Link zu dieser Seite / Seite empfehlen

Das Wetter in ...